Time;durP1;ratioP1;P1;durP2;ratioP2;P2;SDS_P1;SDS_P2;PMS_P1;PMS_P2;Temp;Humidity;BMP_temperature;BMP_pressure;BME280_temperature;BME280_humidity;BME280_pressure;Samples;Min_cycle;Max_cycle;Signal;HPM_P1;HPM_P2
2022/12/06 00:02:10;;;;;;;3.25;2.60;;;14.50;67.20;;;;;;5123416;28;20307;-68
2022/12/06 00:04:36;;;;;;;3.20;2.90;;;14.50;67.10;;;;;;5123383;28;20028;-67
2022/12/06 00:07:02;;;;;;;3.38;2.78;;;14.50;67.00;;;;;;5123290;28;20015;-68
2022/12/06 00:09:30;;;;;;;3.83;3.10;;;14.40;67.00;;;;;;5123207;28;20098;-68
2022/12/06 00:11:56;;;;;;;3.05;2.65;;;14.50;67.00;;;;;;5123278;28;20034;-67
2022/12/06 00:14:26;;;;;;;3.47;3.05;;;14.50;66.90;;;;;;5123269;28;20039;-67
2022/12/06 00:16:52;;;;;;;3.15;2.75;;;14.50;66.90;;;;;;5123234;28;20032;-68
2022/12/06 00:19:21;;;;;;;3.28;2.95;;;14.50;67.50;;;;;;5123068;28;20027;-67
2022/12/06 00:21:47;;;;;;;3.25;2.70;;;14.50;66.80;;;;;;5104930;28;20122;-68
2022/12/06 00:24:21;;;;;;;2.80;2.53;;;14.50;66.80;;;;;;5123075;28;20420;-68
2022/12/06 00:26:48;;;;;;;3.20;2.88;;;14.50;66.80;;;;;;5123012;28;20023;-67
2022/12/06 00:29:20;;;;;;;3.15;2.88;;;14.50;66.70;;;;;;5122998;28;20072;-68
2022/12/06 00:31:47;;;;;;;3.92;3.10;;;14.50;66.80;;;;;;5122948;28;20027;-68
2022/12/06 00:34:13;;;;;;;2.97;2.60;;;14.50;66.80;;;;;;5122858;28;20039;-67
2022/12/06 00:36:40;;;;;;;3.97;3.25;;;14.50;66.70;;;;;;5122888;28;20333;-68
2022/12/06 00:39:10;;;;;;;3.78;3.13;;;14.50;66.70;;;;;;5122787;28;20105;-68
2022/12/06 00:41:36;;;;;;;3.30;3.00;;;14.50;66.70;;;;;;5122764;28;20024;-69
2022/12/06 00:44:02;;;;;;;3.10;2.80;;;14.50;66.90;;;;;;5122709;28;20323;-68
2022/12/06 00:46:30;;;;;;;4.80;3.50;;;14.50;66.90;;;;;;5122681;28;20016;-68
2022/12/06 00:48:58;;;;;;;3.20;2.90;;;14.50;66.90;;;;;;5122679;28;20023;-68
2022/12/06 00:51:26;;;;;;;3.75;2.88;;;14.50;67.00;;;;;;5122598;28;20029;-67
2022/12/06 00:53:52;;;;;;;4.45;2.90;;;14.50;66.90;;;;;;5122455;28;20032;-67
2022/12/06 00:56:18;;;;;;;3.22;2.90;;;14.40;67.10;;;;;;5122597;28;20193;-67
2022/12/06 00:58:45;;;;;;;4.15;3.05;;;14.40;67.00;;;;;;5122137;28;20097;-68
2022/12/06 01:01:14;;;;;;;3.78;3.40;;;14.50;67.10;;;;;;5122564;28;20099;-69
2022/12/06 01:03:41;;;;;;;3.40;2.80;;;14.40;67.00;;;;;;5104422;28;20037;-68
2022/12/06 01:06:09;;;;;;;3.45;2.75;;;14.50;67.10;;;;;;5122547;28;20303;-68
2022/12/06 01:08:35;;;;;;;3.83;3.10;;;14.40;67.10;;;;;;5122393;28;20055;-68
2022/12/06 01:11:01;;;;;;;3.95;2.88;;;14.50;67.10;;;;;;5122545;28;20100;-68
2022/12/06 01:13:28;;;;;;;2.55;2.30;;;14.50;66.90;;;;;;5122506;28;20024;-68
2022/12/06 01:15:53;;;;;;;3.22;2.88;;;14.50;66.90;;;;;;5122492;28;20020;-68
2022/12/06 01:18:20;;;;;;;2.90;2.65;;;14.50;66.90;;;;;;5122409;28;20024;-68
2022/12/06 01:20:46;;;;;;;3.42;3.08;;;14.50;66.90;;;;;;5122407;28;20225;-68
2022/12/06 01:23:13;;;;;;;3.72;3.33;;;14.50;66.90;;;;;;5122366;28;20037;-68
2022/12/06 01:25:47;;;;;;;3.90;3.35;;;14.50;66.80;;;;;;5122350;28;20069;-68
2022/12/06 01:28:13;;;;;;;4.18;3.58;;;14.50;66.80;;;;;;5122276;28;20095;-67
2022/12/06 01:30:39;;;;;;;3.17;2.83;;;14.50;66.80;;;;;;5122215;28;20030;-68
2022/12/06 01:33:05;;;;;;;3.90;3.47;;;14.50;66.80;;;;;;5122128;28;20016;-68
2022/12/06 01:35:30;;;;;;;4.13;3.17;;;14.50;66.70;;;;;;5122225;28;20092;-67
2022/12/06 01:37:56;;;;;;;3.75;3.30;;;14.50;66.70;;;;;;5122150;28;20041;-68
2022/12/06 01:40:22;;;;;;;3.85;3.15;;;14.50;66.70;;;;;;5122164;28;20089;-68
2022/12/06 01:42:48;;;;;;;3.35;2.85;;;14.50;66.70;;;;;;5122105;28;20090;-68
2022/12/06 01:45:13;;;;;;;3.60;3.15;;;14.50;66.70;;;;;;5104015;28;20024;-67
2022/12/06 01:47:42;;;;;;;3.10;2.75;;;14.50;67.30;;;;;;5122154;28;20096;-67
2022/12/06 01:50:23;;;;;;;3.17;2.70;;;14.50;66.70;;;;;;5122138;28;20015;-68
2022/12/06 01:53:07;;;;;;;3.17;2.80;;;14.50;66.60;;;;;;5122179;28;20354;-68
2022/12/06 01:55:37;;;;;;;3.80;3.00;;;14.50;66.60;;;;;;5122165;28;20027;-68
2022/12/06 01:58:10;;;;;;;5.07;3.40;;;14.50;66.80;;;;;;5122053;28;20011;-68
2022/12/06 02:00:36;;;;;;;3.00;2.70;;;14.50;66.80;;;;;;5122065;28;20012;-67
2022/12/06 02:03:05;;;;;;;3.63;3.08;;;14.40;66.90;;;;;;5121956;28;20015;-68
2022/12/06 02:05:31;;;;;;;3.95;3.15;;;14.50;67.00;;;;;;5122706;28;20008;-68
2022/12/06 02:07:59;;;;;;;3.83;3.08;;;14.50;67.00;;;;;;5125545;28;20050;-69
2022/12/06 02:10:26;;;;;;;3.03;2.60;;;14.40;67.00;;;;;;5125713;28;20020;-69
2022/12/06 02:12:55;;;;;;;4.68;3.63;;;14.40;67.10;;;;;;5125562;28;20219;-68
2022/12/06 02:15:36;;;;;;;4.10;3.05;;;14.40;67.10;;;;;;5125560;28;20020;-70
2022/12/06 02:18:12;;;;;;;3.40;2.88;;;14.50;67.10;;;;;;5125461;28;20241;-67
2022/12/06 02:20:51;;;;;;;3.38;3.05;;;14.40;67.10;;;;;;5125423;28;20008;-68
2022/12/06 02:23:42;;;;;;;3.13;2.83;;;14.40;67.20;;;;;;5125509;28;20053;-67
2022/12/06 02:26:23;;;;;;;4.20;3.10;;;14.40;67.10;;;;;;5125405;28;20039;-68
2022/12/06 02:29:13;;;;;;;3.67;3.15;;;14.50;67.10;;;;;;5125319;28;20024;-68
2022/12/06 02:31:46;;;;;;;3.95;2.90;;;14.40;67.10;;;;;;5125276;28;20026;-67
2022/12/06 02:34:28;;;;;;;3.00;2.58;;;14.40;67.00;;;;;;5125211;28;20019;-68
2022/12/06 02:37:00;;;;;;;3.20;2.78;;;14.50;67.00;;;;;;5125188;28;20020;-67
2022/12/06 02:39:41;;;;;;;3.35;3.05;;;14.50;67.00;;;;;;5125036;28;20037;-67
2022/12/06 02:42:23;;;;;;;3.05;2.55;;;14.50;66.90;;;;;;5125248;28;20042;-67
2022/12/06 02:44:53;;;;;;;3.50;2.97;;;14.50;66.90;;;;;;5125070;28;20105;-67
2022/12/06 02:47:23;;;;;;;2.90;2.65;;;14.50;66.80;;;;;;5125019;28;20307;-68
2022/12/06 02:49:53;;;;;;;2.72;2.53;;;14.50;67.50;;;;;;5124890;28;20080;-67
2022/12/06 02:52:25;;;;;;;3.25;2.95;;;14.50;66.80;;;;;;5124816;28;20043;-68
2022/12/06 02:54:54;;;;;;;3.00;2.70;;;14.50;66.80;;;;;;5124892;28;20040;-67
2022/12/06 02:57:39;;;;;;;3.20;2.90;;;14.50;66.70;;;;;;5124861;28;20327;-67
2022/12/06 03:00:27;;;;;;;3.90;3.53;;;14.50;66.70;;;;;;5124771;28;20028;-68
2022/12/06 03:03:20;;;;;;;3.33;2.87;;;14.50;66.70;;;;;;5124746;28;20057;-67
2022/12/06 03:06:01;;;;;;;3.30;3.00;;;14.50;66.70;;;;;;5095611;28;20038;-67
2022/12/06 03:08:37;;;;;;;3.88;3.00;;;14.50;67.30;;;;;;5124420;28;20077;-68
2022/12/06 03:11:03;;;;;;;3.22;2.88;;;14.50;66.70;;;;;;5124541;28;20353;-68
2022/12/06 03:13:51;;;;;;;3.30;2.95;;;14.50;66.70;;;;;;5124429;28;20200;-67
2022/12/06 03:17:01;;;;;;;3.35;3.05;;;14.50;66.70;;;;;;5124470;28;20112;-68
2022/12/06 03:19:29;;;;;;;3.30;2.80;;;14.50;66.60;;;;;;5061855;28;20192;-68
2022/12/06 03:22:18;;;;;;;3.45;2.80;;;14.50;66.80;;;;;;5124333;28;20053;-69
2022/12/06 03:24:44;;;;;;;;;;;14.50;66.80;;;;;;5095668;28;20020;-68
2022/12/06 03:27:15;;;;;;;3.13;2.83;;;14.50;66.90;;;;;;5124266;28;19900;-68
2022/12/06 03:29:51;;;;;;;2.85;2.65;;;14.40;66.90;;;;;;5124250;28;20073;-68
2022/12/06 03:32:20;;;;;;;3.13;2.75;;;14.40;67.00;;;;;;5124170;28;20022;-68
2022/12/06 03:34:50;;;;;;;3.35;2.55;;;14.50;67.00;;;;;;5124143;28;20051;-67
2022/12/06 03:37:20;;;;;;;2.67;2.47;;;14.50;67.00;;;;;;5124017;28;20011;-69
2022/12/06 03:39:54;;;;;;;3.10;2.80;;;14.50;67.10;;;;;;5123873;28;20353;-68
2022/12/06 03:42:20;;;;;;;2.95;2.72;;;14.50;67.10;;;;;;5124006;28;20008;-67
2022/12/06 03:44:46;;;;;;;3.30;2.70;;;14.50;67.10;;;;;;5123873;28;20075;-67
2022/12/06 03:47:35;;;;;;;3.65;2.83;;;14.50;66.90;;;;;;5123800;28;20079;-67
2022/12/06 03:50:15;;;;;;;2.90;2.63;;;14.40;66.90;;;;;;5123739;28;20047;-65
2022/12/06 03:52:41;;;;;;;3.28;2.97;;;14.40;66.90;;;;;;5123791;28;20016;-69
2022/12/06 03:55:07;;;;;;;3.17;2.42;;;14.50;67.00;;;;;;5123696;28;20027;-68
2022/12/06 03:57:33;;;;;;;3.55;2.70;;;14.50;66.90;;;;;;5123610;28;20016;-68
2022/12/06 03:59:59;;;;;;;3.03;2.63;;;14.50;66.90;;;;;;5123627;28;20041;-68
2022/12/06 04:02:25;;;;;;;3.25;2.80;;;14.50;66.90;;;;;;5123590;28;20011;-69
2022/12/06 04:04:51;;;;;;;2.92;2.30;;;14.50;66.80;;;;;;5123498;28;20023;-68
2022/12/06 04:07:20;;;;;;;2.90;2.60;;;14.50;66.80;;;;;;5123495;28;20019;-67
2022/12/06 04:10:01;;;;;;;4.22;2.92;;;14.50;66.70;;;;;;5123294;28;20035;-68
2022/12/06 04:15:14;;;;;;;3.25;2.70;;;14.50;66.70;;;;;;5123350;28;20223;-67
2022/12/06 04:20:27;;;;;;;2.80;2.58;;;14.50;66.60;;;;;;5123292;28;20419;-68
2022/12/06 04:23:05;;;;;;;3.03;2.50;;;14.50;66.60;;;;;;5123183;28;20031;-68
2022/12/06 04:25:32;;;;;;;3.15;2.75;;;14.50;66.50;;;;;;5123132;28;20019;-69
2022/12/06 04:38:57;;;;;;;2.60;2.38;;;14.40;66.90;;;;;;5122943;28;20030;-68
2022/12/06 04:44:07;;;;;;;2.88;2.58;;;14.40;66.90;;;;;;5122911;28;20030;-67
2022/12/06 04:46:34;;;;;;;3.03;2.70;;;14.40;67.00;;;;;;5122873;28;20012;-68
2022/12/06 04:48:59;;;;;;;3.03;2.75;;;14.50;67.10;;;;;;5122749;28;20298;-68
2022/12/06 04:51:25;;;;;;;3.55;2.90;;;14.40;67.10;;;;;;5122706;28;20054;-68
2022/12/06 04:53:51;;;;;;;3.00;2.65;;;14.50;67.10;;;;;;5122751;28;20082;-68
2022/12/06 04:56:17;;;;;;;3.05;2.75;;;14.40;67.10;;;;;;5122804;28;20020;-68
2022/12/06 04:58:44;;;;;;;2.97;2.47;;;14.40;67.20;;;;;;5122560;28;20035;-67
2022/12/06 05:01:10;;;;;;;3.08;2.78;;;14.50;67.20;;;;;;5122654;28;20008;-68
2022/12/06 05:03:36;;;;;;;3.00;2.65;;;14.40;67.00;;;;;;5122626;28;20241;-67
2022/12/06 05:06:03;;;;;;;2.83;2.47;;;14.50;67.00;;;;;;5122614;28;20012;-68
2022/12/06 05:08:29;;;;;;;3.20;2.58;;;14.50;66.90;;;;;;5122412;28;20357;-68
2022/12/06 05:10:55;;;;;;;4.18;2.60;;;14.50;66.90;;;;;;5122589;28;20027;-68
2022/12/06 05:13:21;;;;;;;2.63;2.42;;;14.50;66.90;;;;;;5138405;28;20023;-68
2022/12/06 05:15:50;;;;;;;3.63;2.78;;;14.50;66.80;;;;;;5122487;28;20083;-68
2022/12/06 05:18:16;;;;;;;2.63;2.42;;;14.50;66.80;;;;;;5122285;28;20050;-69
2022/12/06 05:20:42;;;;;;;3.10;2.60;;;14.50;66.80;;;;;;5122434;28;20019;-69
2022/12/06 05:23:07;;;;;;;3.95;3.00;;;14.50;66.80;;;;;;5122443;28;20019;-68
2022/12/06 05:25:33;;;;;;;2.70;2.47;;;14.50;66.70;;;;;;5122357;28;20024;-68
2022/12/06 05:27:59;;;;;;;2.70;2.47;;;14.50;66.70;;;;;;5104223;28;20019;-69
2022/12/06 05:30:25;;;;;;;2.60;2.30;;;14.50;66.70;;;;;;5122367;28;20023;-68
2022/12/06 05:32:50;;;;;;;4.57;2.67;;;14.50;66.70;;;;;;5122320;28;20024;-69
2022/12/06 05:35:16;;;;;;;2.53;2.33;;;14.50;66.70;;;;;;5122195;28;20020;-68
2022/12/06 05:37:42;;;;;;;2.75;2.55;;;14.50;66.60;;;;;;5122260;28;20024;-69
2022/12/06 05:40:08;;;;;;;2.35;2.00;;;14.50;66.60;;;;;;5122443;28;20039;-68
2022/12/06 05:42:34;;;;;;;2.92;2.47;;;14.50;66.60;;;;;;5126333;28;20039;-68
2022/12/06 05:45:01;;;;;;;2.65;2.20;;;14.50;66.70;;;;;;5126257;28;20035;-68
2022/12/06 05:47:27;;;;;;;2.38;2.17;;;14.50;66.60;;;;;;5126227;28;20075;-68
2022/12/06 05:49:52;;;;;;;2.47;2.22;;;14.50;66.70;;;;;;5126201;28;20015;-69
2022/12/06 05:52:18;;;;;;;2.97;2.58;;;14.50;67.40;;;;;;5126074;28;20023;-68
2022/12/06 05:54:44;;;;;;;4.45;2.95;;;14.50;66.90;;;;;;5126057;28;20035;-67
2022/12/06 05:57:10;;;;;;;2.58;2.38;;;14.40;66.90;;;;;;5126022;28;20028;-68
2022/12/06 05:59:36;;;;;;;2.55;2.35;;;14.40;66.90;;;;;;5125881;28;20016;-68
2022/12/06 06:02:01;;;;;;;2.50;2.28;;;14.40;67.00;;;;;;5125973;28;20019;-68
2022/12/06 06:04:27;;;;;;;3.63;2.88;;;14.50;67.10;;;;;;5125832;28;20018;-68
2022/12/06 06:06:53;;;;;;;3.03;2.40;;;14.50;67.10;;;;;;5125862;28;20061;-67
2022/12/06 06:09:19;;;;;;;2.65;2.45;;;14.40;67.00;;;;;;5125595;28;20035;-69
2022/12/06 06:11:44;;;;;;;2.50;2.30;;;14.40;67.10;;;;;;5125646;28;20054;-68
2022/12/06 06:14:10;;;;;;;2.60;2.40;;;14.40;67.20;;;;;;5125624;28;20035;-69
2022/12/06 06:16:36;;;;;;;3.08;2.78;;;14.40;67.10;;;;;;5125668;28;20084;-67
2022/12/06 06:19:02;;;;;;;2.40;2.20;;;14.50;67.10;;;;;;5125551;28;20377;-68
2022/12/06 06:21:28;;;;;;;3.00;2.53;;;14.50;67.00;;;;;;5141438;27;20307;-67
2022/12/06 06:23:56;;;;;;;2.30;2.10;;;14.50;66.90;;;;;;5107245;28;20018;-68
2022/12/06 06:26:22;;;;;;;2.65;2.45;;;14.50;66.90;;;;;;5125357;28;20299;-67
2022/12/06 06:28:47;;;;;;;2.50;2.30;;;14.50;66.80;;;;;;5125384;28;20034;-68
2022/12/06 06:31:14;;;;;;;2.40;2.20;;;14.50;66.80;;;;;;5125371;28;20337;-68
2022/12/06 06:33:40;;;;;;;2.95;2.65;;;14.50;66.70;;;;;;5125262;28;20227;-67
2022/12/06 06:36:06;;;;;;;2.92;2.63;;;14.50;66.70;;;;;;5125239;28;20087;-68
2022/12/06 06:38:32;;;;;;;2.58;2.35;;;14.50;67.30;;;;;;5125151;28;20203;-67
2022/12/06 06:41:02;;;;;;;2.92;2.28;;;14.50;66.70;;;;;;5125171;28;20020;-67
2022/12/06 06:43:29;;;;;;;2.60;2.30;;;14.50;66.60;;;;;;5125179;28;20295;-68
2022/12/06 06:46:03;;;;;;;2.67;2.35;;;14.50;66.60;;;;;;5125074;28;20019;-68
2022/12/06 06:48:31;;;;;;;2.85;2.30;;;14.50;66.60;;;;;;5125014;28;20018;-68
2022/12/06 06:51:06;;;;;;;2.42;2.22;;;14.50;66.70;;;;;;5124852;28;20023;-69
2022/12/06 06:53:32;;;;;;;2.88;2.40;;;14.50;66.60;;;;;;5125001;28;20030;-68
2022/12/06 06:55:58;;;;;;;2.03;1.83;;;14.50;66.60;;;;;;5124897;28;20047;-68
2022/12/06 06:58:24;;;;;;;2.58;2.30;;;14.50;66.50;;;;;;5124732;28;20027;-69
2022/12/06 07:00:55;;;;;;;2.45;2.25;;;14.50;66.50;;;;;;5124828;28;20701;-69
2022/12/06 07:03:22;;;;;;;2.90;2.65;;;14.50;66.60;;;;;;5124748;28;20023;-68
2022/12/06 07:06:02;;;;;;;2.55;2.33;;;14.50;66.60;;;;;;5124715;28;20326;-68
2022/12/06 07:08:29;;;;;;;2.45;2.20;;;14.50;66.70;;;;;;5124484;28;20073;-67
2022/12/06 07:10:56;;;;;;;2.35;2.15;;;14.50;66.80;;;;;;5124579;28;20015;-68
2022/12/06 07:13:23;;;;;;;2.53;2.30;;;14.50;66.90;;;;;;5124541;28;20031;-67
2022/12/06 07:15:50;;;;;;;2.83;2.40;;;14.50;67.00;;;;;;5124499;28;20023;-68
2022/12/06 07:18:16;;;;;;;2.53;2.33;;;14.50;67.00;;;;;;5124287;28;20092;-67
2022/12/06 07:20:43;;;;;;;2.38;2.17;;;14.40;67.60;;;;;;5124358;28;20244;-68
2022/12/06 07:23:09;;;;;;;3.65;2.40;;;14.40;67.00;;;;;;5124317;28;20043;-68
2022/12/06 07:25:35;;;;;;;2.28;2.08;;;14.40;67.00;;;;;;5124214;28;20035;-69
2022/12/06 07:28:00;;;;;;;3.55;3.00;;;14.40;67.10;;;;;;5124211;28;20023;-67
2022/12/06 07:30:26;;;;;;;2.60;2.40;;;14.50;67.10;;;;;;5105966;28;20024;-69
2022/12/06 07:32:53;;;;;;;2.33;2.13;;;14.40;66.90;;;;;;5124115;28;20024;-68
2022/12/06 07:35:19;;;;;;;2.97;2.67;;;14.50;66.90;;;;;;5124023;28;20020;-69
2022/12/06 07:37:45;;;;;;;2.67;2.33;;;14.50;66.90;;;;;;5123984;28;20023;-70
2022/12/06 07:40:13;;;;;;;2.70;2.50;;;14.50;66.90;;;;;;5124070;28;20023;-68
2022/12/06 07:45:23;;;;;;;2.33;2.13;;;14.50;66.90;;;;;;5123952;28;20018;-68
2022/12/06 07:47:49;;;;;;;2.45;2.13;;;14.50;66.80;;;;;;5105660;28;20011;-68
2022/12/06 07:50:18;;;;;;;2.92;2.50;;;14.50;66.80;;;;;;5123813;28;20079;-68
2022/12/06 07:52:45;;;;;;;2.17;1.98;;;14.50;66.70;;;;;;5123752;28;20321;-68
2022/12/06 07:55:12;;;;;;;2.03;1.90;;;14.50;66.70;;;;;;5105519;28;20315;-69
2022/12/06 07:57:41;;;;;;;2.35;2.15;;;14.50;66.70;;;;;;5123657;28;20008;-67
2022/12/06 08:00:07;;;;;;;;;;;14.50;66.60;;;;;;5124040;28;20027;-68
2022/12/06 08:02:33;;;;;;;3.05;2.28;;;14.50;66.50;;;;;;5123476;28;19900;-68
2022/12/06 08:04:59;;;;;;;2.40;2.20;;;14.50;66.60;;;;;;5122967;28;20015;-69
2022/12/06 08:07:25;;;;;;;2.90;2.70;;;14.60;66.60;;;;;;5105249;28;20019;-68
2022/12/06 08:09:52;;;;;;;2.30;2.10;;;14.60;66.50;;;;;;5123228;28;20086;-68
2022/12/06 08:12:20;;;;;;;2.63;2.05;;;14.50;66.50;;;;;;5123389;28;20083;-68
2022/12/06 08:14:46;;;;;;;2.25;1.90;;;14.60;66.50;;;;;;5123301;28;20031;-68
2022/12/06 08:17:13;;;;;;;2.83;2.20;;;14.50;66.50;;;;;;5123349;28;20038;-67
2022/12/06 08:19:39;;;;;;;2.60;2.40;;;14.60;66.50;;;;;;5123192;28;20031;-69
2022/12/06 08:22:05;;;;;;;2.10;1.88;;;14.60;66.50;;;;;;5123177;28;20334;-68
2022/12/06 08:24:31;;;;;;;2.72;2.20;;;14.60;66.40;;;;;;5123127;28;20061;-68
2022/12/06 08:26:58;;;;;;;4.15;2.75;;;14.60;66.40;;;;;;5123167;28;20307;-68
2022/12/06 08:29:24;;;;;;;2.33;2.13;;;14.60;66.40;;;;;;5123065;28;20087;-68
2022/12/06 08:31:50;;;;;;;2.13;1.98;;;14.60;66.30;;;;;;5123136;28;20026;-68
2022/12/06 08:34:16;;;;;;;3.00;2.63;;;14.60;66.30;;;;;;5123059;28;20043;-68
2022/12/06 08:36:42;;;;;;;2.53;2.33;;;14.60;66.40;;;;;;5122916;28;20022;-68
2022/12/06 08:39:11;;;;;;;2.75;2.30;;;14.60;66.50;;;;;;5104588;28;20102;-67
2022/12/06 08:41:56;;;;;;;2.40;2.20;;;14.60;66.50;;;;;;5122907;28;20008;-69
2022/12/06 08:44:23;;;;;;;2.38;2.17;;;14.50;66.60;;;;;;5104670;28;20019;-68
2022/12/06 08:46:49;;;;;;;2.88;2.08;;;14.60;66.60;;;;;;5122833;28;20020;-68
2022/12/06 08:49:15;;;;;;;1.92;1.73;;;14.60;66.60;;;;;;5122849;28;20026;-68
2022/12/06 08:51:42;;;;;;;2.58;2.38;;;14.50;66.60;;;;;;5122701;28;20069;-68
2022/12/06 08:54:12;;;;;;;2.60;2.28;;;14.50;66.60;;;;;;5122754;28;20024;-68
2022/12/06 08:56:38;;;;;;;2.22;2.03;;;14.60;66.50;;;;;;5122703;28;20023;-68
2022/12/06 08:59:07;;;;;;;2.95;2.60;;;14.60;66.50;;;;;;5104439;28;20096;-68
2022/12/06 09:01:33;;;;;;;;;;;14.60;66.40;;;;;;5123157;28;20020;-68
2022/12/06 09:03:59;;;;;;;2.10;1.90;;;14.60;66.40;;;;;;5122706;28;19908;-68
2022/12/06 09:06:25;;;;;;;2.10;1.90;;;14.60;66.60;;;;;;5122599;28;20083;-68
2022/12/06 09:08:51;;;;;;;2.45;2.25;;;14.50;66.60;;;;;;5122363;28;20402;-68
2022/12/06 09:11:18;;;;;;;2.22;2.03;;;14.60;66.60;;;;;;5122475;28;20020;-68
2022/12/06 09:13:45;;;;;;;2.88;2.20;;;14.60;66.60;;;;;;5122587;28;20023;-67
2022/12/06 09:16:14;;;;;;;2.30;2.10;;;14.50;66.60;;;;;;5126265;28;20022;-68
2022/12/06 09:18:44;;;;;;;2.78;2.55;;;14.50;66.70;;;;;;5126694;28;20046;-68
2022/12/06 09:21:12;;;;;;;2.70;2.20;;;14.60;66.70;;;;;;5126736;28;20079;-69
2022/12/06 09:23:38;;;;;;;2.35;2.00;;;14.60;66.70;;;;;;5126692;28;20042;-67
2022/12/06 09:26:05;;;;;;;2.50;2.30;;;14.60;66.60;;;;;;5126647;28;20027;-67
2022/12/06 09:28:33;;;;;;;2.25;2.05;;;14.60;66.60;;;;;;5126576;28;20019;-68
2022/12/06 09:31:00;;;;;;;2.10;1.90;;;14.60;66.70;;;;;;5126571;28;20049;-67
2022/12/06 09:33:26;;;;;;;2.25;2.05;;;14.50;66.60;;;;;;5108194;28;20027;-68
2022/12/06 09:35:52;;;;;;;2.03;1.77;;;14.50;66.60;;;;;;5126357;28;20386;-68
2022/12/06 09:38:23;;;;;;;2.20;2.00;;;14.60;66.60;;;;;;5126310;28;20058;-68
2022/12/06 09:41:16;;;;;;;2.45;2.25;;;14.60;66.60;;;;;;5126396;28;20362;-68
2022/12/06 09:44:39;;;;;;;2.10;1.90;;;14.50;66.60;;;;;;5126330;28;20026;-68
2022/12/06 09:47:11;;;;;;;2.33;2.13;;;14.60;66.60;;;;;;5043451;28;20033;-67
2022/12/06 09:50:07;;;;;;;2.20;2.00;;;14.60;66.60;;;;;;5043434;28;20308;-68
2022/12/06 09:52:51;;;;;;;2.15;1.95;;;14.60;66.50;;;;;;5102524;28;20066;-69
2022/12/06 09:55:29;;;;;;;2.72;2.25;;;14.60;66.50;;;;;;5107906;28;20211;-68
2022/12/06 09:58:00;;;;;;;2.47;2.25;;;14.60;66.50;;;;;;5125907;28;20408;-69
2022/12/06 10:00:34;;;;;;;1.60;1.50;;;14.60;66.60;;;;;;5126037;28;20019;-68
2022/12/06 10:03:18;;;;;;;2.63;2.10;;;14.60;66.60;;;;;;5126030;28;20233;-68
2022/12/06 10:06:04;;;;;;;2.33;2.13;;;14.60;66.40;;;;;;5125876;28;20056;-68
2022/12/06 10:08:46;;;;;;;2.45;2.08;;;14.60;66.50;;;;;;5107480;28;20068;-68
2022/12/06 10:11:39;;;;;;;2.53;2.33;;;14.60;66.60;;;;;;5125850;28;20020;-67
2022/12/06 10:14:25;;;;;;;2.45;2.03;;;14.60;66.80;;;;;;5125660;28;20265;-67
2022/12/06 10:17:20;;;;;;;1.92;1.73;;;14.50;66.90;;;;;;5125615;28;20022;-68
2022/12/06 10:19:48;;;;;;;1.83;1.73;;;14.60;67.00;;;;;;5125592;28;20090;-66
2022/12/06 10:22:30;;;;;;;2.35;2.15;;;14.50;66.90;;;;;;5125497;28;20221;-67
2022/12/06 10:25:36;;;;;;;2.28;2.08;;;14.60;66.90;;;;;;5125543;28;20019;-67
2022/12/06 10:28:40;;;;;;;2.50;1.90;;;14.60;66.80;;;;;;5083767;28;20034;-67
2022/12/06 10:31:18;;;;;;;1.98;1.80;;;14.50;66.90;;;;;;5083393;28;20227;-68
2022/12/06 10:34:00;;;;;;;2.38;1.90;;;14.60;66.90;;;;;;5125329;28;20161;-68
2022/12/06 10:36:37;;;;;;;1.77;1.67;;;14.60;66.70;;;;;;5125256;28;20098;-68
2022/12/06 10:39:35;;;;;;;2.10;1.90;;;14.60;66.70;;;;;;5106971;28;20051;-68
2022/12/06 10:42:12;;;;;;;2.35;2.15;;;14.60;66.60;;;;;;5114135;28;20103;-67
2022/12/06 10:44:46;;;;;;;1.90;1.80;;;14.60;66.50;;;;;;5125174;28;20065;-68
2022/12/06 10:47:24;;;;;;;2.35;2.08;;;14.60;66.50;;;;;;5125004;28;20080;-67
2022/12/06 10:50:07;;;;;;;1.73;1.60;;;14.70;66.30;;;;;;5125151;28;20315;-69
2022/12/06 10:52:43;;;;;;;2.00;1.80;;;14.70;66.30;;;;;;5106707;28;20023;-68
2022/12/06 10:55:12;;;;;;;2.08;1.88;;;14.60;66.30;;;;;;5124944;28;20078;-69
2022/12/06 10:57:42;;;;;;;2.25;1.80;;;14.70;66.40;;;;;;5124822;28;20039;-68
2022/12/06 11:00:31;;;;;;;1.85;1.70;;;14.70;66.30;;;;;;5106510;28;20023;-68
2022/12/06 11:03:02;;;;;;;2.65;2.28;;;14.70;66.20;;;;;;5124736;28;20245;-68
2022/12/06 11:05:42;;;;;;;2.17;1.90;;;14.60;66.30;;;;;;5124677;28;20023;-67
2022/12/06 11:08:14;;;;;;;2.05;1.85;;;14.60;66.30;;;;;;5124091;28;20040;-69
2022/12/06 11:10:44;;;;;;;2.03;1.90;;;14.60;66.40;;;;;;5124590;28;20023;-68
2022/12/06 11:13:12;;;;;;;2.10;1.90;;;14.60;66.50;;;;;;5124536;28;20211;-68
2022/12/06 11:15:43;;;;;;;1.88;1.67;;;14.60;66.50;;;;;;5124493;28;20326;-69
2022/12/06 11:18:15;;;;;;;2.03;1.83;;;14.60;66.50;;;;;;5124410;28;20027;-69
2022/12/06 11:20:45;;;;;;;2.00;1.80;;;14.60;66.50;;;;;;5106166;28;20015;-68
2022/12/06 11:23:20;;;;;;;2.00;1.77;;;14.60;66.50;;;;;;5106111;28;20203;-69
2022/12/06 11:25:58;;;;;;;2.58;2.00;;;14.60;66.60;;;;;;5106193;28;20016;-68
2022/12/06 11:28:37;;;;;;;2.13;1.90;;;14.60;66.50;;;;;;5124258;28;20015;-69
2022/12/06 11:31:25;;;;;;;1.98;1.83;;;14.60;66.50;;;;;;5106016;28;20023;-69
2022/12/06 11:33:52;;;;;;;3.40;2.10;;;14.60;66.50;;;;;;5124265;28;20025;-68
2022/12/06 11:36:20;;;;;;;2.55;2.03;;;14.60;66.70;;;;;;5124113;28;20095;-66
2022/12/06 11:38:46;;;;;;;2.63;1.90;;;14.50;66.80;;;;;;5122902;28;20019;-67
2022/12/06 11:41:22;;;;;;;1.85;1.75;;;14.50;66.90;;;;;;5123965;28;20112;-67
2022/12/06 11:43:48;;;;;;;2.50;1.83;;;14.50;66.90;;;;;;5123951;28;20322;-66
2022/12/06 11:46:14;;;;;;;1.83;1.73;;;14.50;66.90;;;;;;5123859;28;20020;-67
2022/12/06 11:48:41;;;;;;;2.10;1.90;;;14.50;66.90;;;;;;5123833;28;20019;-68
2022/12/06 11:51:17;;;;;;;2.25;2.05;;;14.60;66.90;;;;;;5123891;28;20677;-68
2022/12/06 11:54:20;;;;;;;2.03;1.58;;;14.50;66.90;;;;;;5123697;28;20100;-68
2022/12/06 11:56:46;;;;;;;2.20;1.90;;;14.50;66.90;;;;;;5105360;28;20016;-68
2022/12/06 11:59:24;;;;;;;2.70;2.40;;;14.50;67.10;;;;;;5123503;28;20032;-67
2022/12/06 12:01:53;;;;;;;1.85;1.65;;;14.50;67.00;;;;;;5105319;28;20012;-68
2022/12/06 12:04:38;;;;;;;1.58;1.48;;;14.50;67.10;;;;;;5123566;28;20023;-68
2022/12/06 12:07:18;;;;;;;2.08;1.80;;;14.50;66.90;;;;;;5123506;28;20012;-67
2022/12/06 12:09:58;;;;;;;1.55;1.45;;;14.50;66.90;;;;;;5123282;28;20035;-68
2022/12/06 12:16:11;;;;;;;1.95;1.73;;;14.60;66.70;;;;;;5042498;28;20093;-68
2022/12/06 12:18:42;;;;;;;1.80;1.70;;;14.60;66.60;;;;;;5123244;28;20019;-68
2022/12/06 12:21:08;;;;;;;2.35;1.80;;;14.60;66.60;;;;;;5123297;28;20197;-68
2022/12/06 12:23:45;;;;;;;1.77;1.67;;;14.60;66.70;;;;;;5123210;28;20307;-68
2022/12/06 12:26:17;;;;;;;2.15;1.95;;;14.60;66.50;;;;;;5123228;28;20325;-68
2022/12/06 12:29:03;;;;;;;2.00;1.75;;;14.60;66.70;;;;;;5123140;28;20031;-67
2022/12/06 12:31:28;;;;;;;2.05;1.85;;;14.60;66.60;;;;;;5123068;28;20031;-68
2022/12/06 12:34:25;;;;;;;2.20;2.00;;;14.60;66.60;;;;;;5122967;28;20023;-68
2022/12/06 12:36:58;;;;;;;1.40;1.30;;;14.60;66.50;;;;;;5122976;28;20326;-68
2022/12/06 12:39:37;;;;;;;1.63;1.52;;;14.60;66.60;;;;;;5122885;28;20031;-67
2022/12/06 12:42:04;;;;;;;2.05;1.85;;;14.60;66.50;;;;;;5122933;28;20019;-68
2022/12/06 12:44:33;;;;;;;2.20;1.80;;;14.70;66.30;;;;;;5122783;28;20311;-67
2022/12/06 12:47:19;;;;;;;2.35;1.80;;;14.80;66.00;;;;;;5122803;28;20073;-67
2022/12/06 12:50:19;;;;;;;2.65;1.85;;;14.80;65.90;;;;;;5122320;28;20023;-68
2022/12/06 12:52:45;;;;;;;1.70;1.60;;;14.70;66.00;;;;;;5122752;28;20057;-68
2022/12/06 12:55:24;;;;;;;2.17;1.63;;;14.80;66.10;;;;;;5122659;28;20023;-67
2022/12/06 12:57:56;;;;;;;1.63;1.52;;;14.90;65.70;;;;;;5122603;28;20050;-68
2022/12/06 13:00:35;;;;;;;1.92;1.73;;;15.00;65.40;;;;;;5122266;28;20313;-68
2022/12/06 13:03:10;;;;;;;1.63;1.52;;;15.00;65.40;;;;;;5122695;28;20015;-68
2022/12/06 13:05:37;;;;;;;1.95;1.70;;;14.80;65.80;;;;;;5122635;28;20083;-69
2022/12/06 13:08:18;;;;;;;2.40;2.15;;;14.80;66.00;;;;;;5122096;28;20284;-68
2022/12/06 13:10:53;;;;;;;1.88;1.75;;;14.70;66.10;;;;;;5122476;28;20051;-68
2022/12/06 13:13:38;;;;;;;1.75;1.65;;;14.70;66.10;;;;;;5122584;28;20027;-68
2022/12/06 13:16:13;;;;;;;1.70;1.60;;;14.70;66.20;;;;;;5122544;28;20046;-69
2022/12/06 13:18:45;;;;;;;2.05;1.70;;;14.70;66.10;;;;;;5122364;28;20319;-68
2022/12/06 13:21:22;;;;;;;1.50;1.40;;;14.70;66.20;;;;;;5122476;28;20039;-68
2022/12/06 13:24:25;;;;;;;10.18;2.22;;;14.70;64.40;;;;;;5122417;28;20011;-71
2022/12/06 13:27:03;;;;;;;7.40;2.28;;;14.60;64.00;;;;;;5080106;28;20065;-71
2022/12/06 13:29:34;;;;;;;17.83;3.25;;;14.70;64.60;;;;;;5122637;28;20027;-72
2022/12/06 13:32:26;;;;;;;4.18;2.05;;;14.70;65.30;;;;;;5122687;28;20315;-72
2022/12/06 13:35:01;;;;;;;3.35;2.20;;;14.70;65.10;;;;;;5103911;28;20044;-72
2022/12/06 13:37:49;;;;;;;4.47;1.80;;;14.80;65.50;;;;;;5122453;28;20028;-71